sensor_id;sensor_type;location;lat;lon;timestamp;P1;durP1;ratioP1;P2;durP2;ratioP2
65187;SDS011;51775;51.148;6.950;2023-07-20T00:01:17;1.58;;;1.00;;
65187;SDS011;51775;51.148;6.950;2023-07-20T00:03:43;1.73;;;1.08;;
65187;SDS011;51775;51.148;6.950;2023-07-20T00:06:08;1.17;;;0.90;;
65187;SDS011;51775;51.148;6.950;2023-07-20T00:08:34;1.77;;;1.10;;
65187;SDS011;51775;51.148;6.950;2023-07-20T00:10:59;1.55;;;0.93;;
65187;SDS011;51775;51.148;6.950;2023-07-20T00:13:24;1.50;;;1.00;;
65187;SDS011;51775;51.148;6.950;2023-07-20T00:15:50;1.45;;;0.90;;
65187;SDS011;51775;51.148;6.950;2023-07-20T00:18:16;1.05;;;0.90;;
65187;SDS011;51775;51.148;6.950;2023-07-20T00:20:41;1.20;;;0.90;;
65187;SDS011;51775;51.148;6.950;2023-07-20T00:23:07;1.83;;;1.00;;
65187;SDS011;51775;51.148;6.950;2023-07-20T00:25:32;1.75;;;0.98;;
65187;SDS011;51775;51.148;6.950;2023-07-20T00:27:57;1.20;;;0.95;;
65187;SDS011;51775;51.148;6.950;2023-07-20T00:30:22;1.58;;;1.08;;
65187;SDS011;51775;51.148;6.950;2023-07-20T00:32:48;1.52;;;1.00;;
65187;SDS011;51775;51.148;6.950;2023-07-20T00:35:13;1.67;;;0.98;;
65187;SDS011;51775;51.148;6.950;2023-07-20T00:37:38;1.88;;;1.00;;
65187;SDS011;51775;51.148;6.950;2023-07-20T00:40:04;2.00;;;0.98;;
65187;SDS011;51775;51.148;6.950;2023-07-20T00:42:30;1.70;;;1.00;;
65187;SDS011;51775;51.148;6.950;2023-07-20T00:44:56;1.50;;;1.10;;
65187;SDS011;51775;51.148;6.950;2023-07-20T00:47:21;1.20;;;0.90;;
65187;SDS011;51775;51.148;6.950;2023-07-20T00:49:46;1.08;;;0.85;;
65187;SDS011;51775;51.148;6.950;2023-07-20T00:52:12;1.50;;;1.10;;
65187;SDS011;51775;51.148;6.950;2023-07-20T00:54:39;1.20;;;1.00;;
65187;SDS011;51775;51.148;6.950;2023-07-20T00:57:05;1.67;;;1.20;;
65187;SDS011;51775;51.148;6.950;2023-07-20T00:59:32;1.90;;;1.10;;
65187;SDS011;51775;51.148;6.950;2023-07-20T01:01:58;1.27;;;1.00;;
65187;SDS011;51775;51.148;6.950;2023-07-20T01:04:24;1.40;;;1.00;;
65187;SDS011;51775;51.148;6.950;2023-07-20T01:07:32;1.30;;;0.90;;
65187;SDS011;51775;51.148;6.950;2023-07-20T01:09:52;1.58;;;1.00;;
65187;SDS011;51775;51.148;6.950;2023-07-20T01:12:51;1.40;;;1.10;;
65187;SDS011;51775;51.148;6.950;2023-07-20T01:15:17;1.70;;;1.00;;
65187;SDS011;51775;51.148;6.950;2023-07-20T01:17:43;1.33;;;1.00;;
65187;SDS011;51775;51.148;6.950;2023-07-20T01:20:08;1.20;;;0.90;;
65187;SDS011;51775;51.148;6.950;2023-07-20T01:23:00;1.35;;;0.95;;
65187;SDS011;51775;51.148;6.950;2023-07-20T01:31:35;1.60;;;1.13;;
65187;SDS011;51775;51.148;6.950;2023-07-20T01:34:02;1.40;;;1.10;;
65187;SDS011;51775;51.148;6.950;2023-07-20T01:36:30;1.70;;;1.00;;
65187;SDS011;51775;51.148;6.950;2023-07-20T01:39:00;1.75;;;1.10;;
65187;SDS011;51775;51.148;6.950;2023-07-20T01:41:25;1.60;;;1.10;;
65187;SDS011;51775;51.148;6.950;2023-07-20T01:43:51;1.38;;;1.02;;
65187;SDS011;51775;51.148;6.950;2023-07-20T01:46:16;1.35;;;0.90;;
65187;SDS011;51775;51.148;6.950;2023-07-20T01:48:41;1.48;;;1.00;;
65187;SDS011;51775;51.148;6.950;2023-07-20T01:51:07;1.90;;;1.10;;
65187;SDS011;51775;51.148;6.950;2023-07-20T01:53:32;1.55;;;1.00;;
65187;SDS011;51775;51.148;6.950;2023-07-20T01:55:57;1.58;;;1.00;;
65187;SDS011;51775;51.148;6.950;2023-07-20T01:58:23;1.30;;;0.88;;
65187;SDS011;51775;51.148;6.950;2023-07-20T02:00:48;1.40;;;0.93;;
65187;SDS011;51775;51.148;6.950;2023-07-20T02:03:13;1.45;;;1.02;;
65187;SDS011;51775;51.148;6.950;2023-07-20T02:05:39;1.35;;;1.00;;
65187;SDS011;51775;51.148;6.950;2023-07-20T02:08:04;2.17;;;1.10;;
65187;SDS011;51775;51.148;6.950;2023-07-20T02:10:29;1.85;;;1.10;;
65187;SDS011;51775;51.148;6.950;2023-07-20T02:12:55;1.90;;;1.20;;
65187;SDS011;51775;51.148;6.950;2023-07-20T02:15:21;1.52;;;1.02;;
65187;SDS011;51775;51.148;6.950;2023-07-20T02:17:47;1.48;;;1.05;;
65187;SDS011;51775;51.148;6.950;2023-07-20T02:20:12;1.55;;;1.00;;
65187;SDS011;51775;51.148;6.950;2023-07-20T02:22:38;1.50;;;1.00;;
65187;SDS011;51775;51.148;6.950;2023-07-20T02:25:04;1.02;;;0.88;;
65187;SDS011;51775;51.148;6.950;2023-07-20T02:27:31;1.55;;;1.05;;
65187;SDS011;51775;51.148;6.950;2023-07-20T02:29:56;1.55;;;1.05;;
65187;SDS011;51775;51.148;6.950;2023-07-20T02:32:21;1.27;;;0.98;;
65187;SDS011;51775;51.148;6.950;2023-07-20T02:34:47;1.40;;;1.10;;
65187;SDS011;51775;51.148;6.950;2023-07-20T02:37:12;1.20;;;0.90;;
65187;SDS011;51775;51.148;6.950;2023-07-20T02:39:38;1.38;;;0.98;;
65187;SDS011;51775;51.148;6.950;2023-07-20T02:42:04;1.20;;;0.98;;
65187;SDS011;51775;51.148;6.950;2023-07-20T02:44:30;1.73;;;1.00;;
65187;SDS011;51775;51.148;6.950;2023-07-20T02:46:55;2.00;;;1.10;;
65187;SDS011;51775;51.148;6.950;2023-07-20T02:49:20;2.22;;;1.20;;
65187;SDS011;51775;51.148;6.950;2023-07-20T02:51:46;1.60;;;1.10;;
65187;SDS011;51775;51.148;6.950;2023-07-20T02:54:11;1.60;;;1.00;;
65187;SDS011;51775;51.148;6.950;2023-07-20T02:56:36;1.40;;;1.00;;
65187;SDS011;51775;51.148;6.950;2023-07-20T02:59:02;1.50;;;1.02;;
65187;SDS011;51775;51.148;6.950;2023-07-20T03:01:27;1.25;;;0.90;;
65187;SDS011;51775;51.148;6.950;2023-07-20T03:03:52;1.92;;;1.20;;
65187;SDS011;51775;51.148;6.950;2023-07-20T03:06:18;1.33;;;1.08;;
65187;SDS011;51775;51.148;6.950;2023-07-20T03:08:43;1.73;;;1.00;;
65187;SDS011;51775;51.148;6.950;2023-07-20T03:11:08;1.40;;;0.90;;
65187;SDS011;51775;51.148;6.950;2023-07-20T03:13:34;1.67;;;1.13;;
65187;SDS011;51775;51.148;6.950;2023-07-20T03:15:59;1.40;;;1.00;;
65187;SDS011;51775;51.148;6.950;2023-07-20T03:18:25;1.48;;;1.00;;
65187;SDS011;51775;51.148;6.950;2023-07-20T03:20:50;1.40;;;0.90;;
65187;SDS011;51775;51.148;6.950;2023-07-20T03:23:15;1.58;;;1.10;;
65187;SDS011;51775;51.148;6.950;2023-07-20T03:25:41;1.63;;;1.05;;
65187;SDS011;51775;51.148;6.950;2023-07-20T03:28:06;1.20;;;0.95;;
65187;SDS011;51775;51.148;6.950;2023-07-20T03:30:31;1.73;;;1.00;;
65187;SDS011;51775;51.148;6.950;2023-07-20T03:32:56;1.40;;;1.00;;
65187;SDS011;51775;51.148;6.950;2023-07-20T03:35:22;1.83;;;1.00;;
65187;SDS011;51775;51.148;6.950;2023-07-20T03:37:47;1.60;;;1.08;;
65187;SDS011;51775;51.148;6.950;2023-07-20T03:40:12;1.50;;;1.05;;
65187;SDS011;51775;51.148;6.950;2023-07-20T03:42:38;1.70;;;1.10;;
65187;SDS011;51775;51.148;6.950;2023-07-20T03:45:03;1.50;;;1.00;;
65187;SDS011;51775;51.148;6.950;2023-07-20T03:47:29;1.38;;;1.00;;
65187;SDS011;51775;51.148;6.950;2023-07-20T03:49:55;1.60;;;1.10;;
65187;SDS011;51775;51.148;6.950;2023-07-20T03:52:20;1.48;;;1.10;;
65187;SDS011;51775;51.148;6.950;2023-07-20T03:54:45;1.63;;;1.00;;
65187;SDS011;51775;51.148;6.950;2023-07-20T03:57:11;1.63;;;1.00;;
65187;SDS011;51775;51.148;6.950;2023-07-20T03:59:37;1.20;;;0.93;;
65187;SDS011;51775;51.148;6.950;2023-07-20T04:02:02;1.67;;;1.10;;
65187;SDS011;51775;51.148;6.950;2023-07-20T04:04:28;1.67;;;0.95;;
65187;SDS011;51775;51.148;6.950;2023-07-20T04:06:53;1.95;;;1.10;;
65187;SDS011;51775;51.148;6.950;2023-07-20T04:09:18;1.40;;;1.00;;
65187;SDS011;51775;51.148;6.950;2023-07-20T04:11:44;1.83;;;1.08;;
65187;SDS011;51775;51.148;6.950;2023-07-20T04:14:09;1.60;;;1.10;;
65187;SDS011;51775;51.148;6.950;2023-07-20T04:16:34;1.42;;;1.00;;
65187;SDS011;51775;51.148;6.950;2023-07-20T04:18:59;1.55;;;1.10;;
65187;SDS011;51775;51.148;6.950;2023-07-20T04:21:25;1.75;;;1.10;;
65187;SDS011;51775;51.148;6.950;2023-07-20T04:23:52;1.90;;;1.10;;
65187;SDS011;51775;51.148;6.950;2023-07-20T04:26:17;1.80;;;1.23;;
65187;SDS011;51775;51.148;6.950;2023-07-20T04:28:42;1.60;;;1.10;;
65187;SDS011;51775;51.148;6.950;2023-07-20T04:31:11;1.63;;;1.10;;
65187;SDS011;51775;51.148;6.950;2023-07-20T04:33:36;1.50;;;1.08;;
65187;SDS011;51775;51.148;6.950;2023-07-20T04:36:02;1.90;;;1.13;;
65187;SDS011;51775;51.148;6.950;2023-07-20T04:38:27;1.45;;;1.00;;
65187;SDS011;51775;51.148;6.950;2023-07-20T04:40:52;1.65;;;1.15;;
65187;SDS011;51775;51.148;6.950;2023-07-20T04:43:18;1.50;;;1.10;;
65187;SDS011;51775;51.148;6.950;2023-07-20T04:45:43;1.40;;;1.00;;
65187;SDS011;51775;51.148;6.950;2023-07-20T04:48:10;1.55;;;1.10;;
65187;SDS011;51775;51.148;6.950;2023-07-20T04:50:36;1.75;;;1.20;;
65187;SDS011;51775;51.148;6.950;2023-07-20T04:53:02;1.60;;;1.17;;
65187;SDS011;51775;51.148;6.950;2023-07-20T04:55:27;1.60;;;1.00;;
65187;SDS011;51775;51.148;6.950;2023-07-20T04:57:53;1.77;;;1.13;;
65187;SDS011;51775;51.148;6.950;2023-07-20T05:00:18;1.80;;;1.02;;
65187;SDS011;51775;51.148;6.950;2023-07-20T05:02:44;1.88;;;1.05;;
65187;SDS011;51775;51.148;6.950;2023-07-20T05:05:09;1.20;;;0.95;;
65187;SDS011;51775;51.148;6.950;2023-07-20T05:07:34;2.25;;;1.05;;
65187;SDS011;51775;51.148;6.950;2023-07-20T05:09:59;1.48;;;1.10;;
65187;SDS011;51775;51.148;6.950;2023-07-20T05:12:25;1.92;;;1.20;;
65187;SDS011;51775;51.148;6.950;2023-07-20T05:14:50;2.08;;;1.20;;
65187;SDS011;51775;51.148;6.950;2023-07-20T05:17:15;1.58;;;1.10;;
65187;SDS011;51775;51.148;6.950;2023-07-20T05:19:41;1.60;;;1.00;;
65187;SDS011;51775;51.148;6.950;2023-07-20T05:22:06;1.90;;;1.20;;
65187;SDS011;51775;51.148;6.950;2023-07-20T05:24:31;1.67;;;1.20;;
65187;SDS011;51775;51.148;6.950;2023-07-20T05:26:57;3.08;;;1.20;;
65187;SDS011;51775;51.148;6.950;2023-07-20T05:29:23;3.08;;;1.30;;
65187;SDS011;51775;51.148;6.950;2023-07-20T05:31:48;1.50;;;1.10;;
65187;SDS011;51775;51.148;6.950;2023-07-20T05:34:13;1.83;;;1.20;;
65187;SDS011;51775;51.148;6.950;2023-07-20T05:36:39;1.95;;;1.35;;
65187;SDS011;51775;51.148;6.950;2023-07-20T05:39:04;2.20;;;1.38;;
65187;SDS011;51775;51.148;6.950;2023-07-20T05:41:29;1.50;;;1.20;;
65187;SDS011;51775;51.148;6.950;2023-07-20T05:43:55;3.15;;;1.33;;
65187;SDS011;51775;51.148;6.950;2023-07-20T05:46:20;1.52;;;1.08;;
65187;SDS011;51775;51.148;6.950;2023-07-20T05:48:45;2.22;;;1.40;;
65187;SDS011;51775;51.148;6.950;2023-07-20T05:51:11;1.98;;;1.38;;
65187;SDS011;51775;51.148;6.950;2023-07-20T05:53:36;3.03;;;1.42;;
65187;SDS011;51775;51.148;6.950;2023-07-20T05:56:01;2.47;;;1.25;;
65187;SDS011;51775;51.148;6.950;2023-07-20T05:58:26;1.83;;;1.30;;
65187;SDS011;51775;51.148;6.950;2023-07-20T06:00:53;1.90;;;1.30;;
65187;SDS011;51775;51.148;6.950;2023-07-20T06:03:18;1.98;;;1.40;;
65187;SDS011;51775;51.148;6.950;2023-07-20T06:05:43;2.33;;;1.25;;
65187;SDS011;51775;51.148;6.950;2023-07-20T06:08:09;2.00;;;1.35;;
65187;SDS011;51775;51.148;6.950;2023-07-20T06:10:34;1.80;;;1.30;;
65187;SDS011;51775;51.148;6.950;2023-07-20T06:12:59;1.98;;;1.40;;
65187;SDS011;51775;51.148;6.950;2023-07-20T06:17:50;2.50;;;1.60;;
65187;SDS011;51775;51.148;6.950;2023-07-20T06:20:15;2.38;;;1.65;;
65187;SDS011;51775;51.148;6.950;2023-07-20T06:22:40;2.20;;;1.60;;
65187;SDS011;51775;51.148;6.950;2023-07-20T06:25:06;2.75;;;1.63;;
65187;SDS011;51775;51.148;6.950;2023-07-20T06:27:31;2.47;;;1.70;;
65187;SDS011;51775;51.148;6.950;2023-07-20T06:29:57;4.15;;;1.70;;
65187;SDS011;51775;51.148;6.950;2023-07-20T06:32:22;2.47;;;1.80;;
65187;SDS011;51775;51.148;6.950;2023-07-20T06:34:47;2.25;;;1.50;;
65187;SDS011;51775;51.148;6.950;2023-07-20T06:37:12;1.95;;;1.50;;
65187;SDS011;51775;51.148;6.950;2023-07-20T06:39:38;2.67;;;1.58;;
65187;SDS011;51775;51.148;6.950;2023-07-20T06:42:03;2.55;;;1.80;;
65187;SDS011;51775;51.148;6.950;2023-07-20T06:44:29;2.20;;;1.52;;
65187;SDS011;51775;51.148;6.950;2023-07-20T06:46:54;3.00;;;1.90;;
65187;SDS011;51775;51.148;6.950;2023-07-20T06:49:26;2.50;;;1.63;;
65187;SDS011;51775;51.148;6.950;2023-07-20T06:51:52;2.42;;;1.52;;
65187;SDS011;51775;51.148;6.950;2023-07-20T06:54:17;2.50;;;1.70;;
65187;SDS011;51775;51.148;6.950;2023-07-20T06:56:43;2.22;;;1.60;;
65187;SDS011;51775;51.148;6.950;2023-07-20T06:59:08;2.38;;;1.60;;
65187;SDS011;51775;51.148;6.950;2023-07-20T07:01:33;2.20;;;1.40;;
65187;SDS011;51775;51.148;6.950;2023-07-20T07:03:58;2.70;;;1.70;;
65187;SDS011;51775;51.148;6.950;2023-07-20T07:06:24;2.25;;;1.60;;
65187;SDS011;51775;51.148;6.950;2023-07-20T07:08:49;2.00;;;1.40;;
65187;SDS011;51775;51.148;6.950;2023-07-20T07:11:14;2.22;;;1.40;;
65187;SDS011;51775;51.148;6.950;2023-07-20T07:13:40;2.05;;;1.40;;
65187;SDS011;51775;51.148;6.950;2023-07-20T07:16:05;2.88;;;1.40;;
65187;SDS011;51775;51.148;6.950;2023-07-20T07:18:31;2.13;;;1.50;;
65187;SDS011;51775;51.148;6.950;2023-07-20T07:20:57;2.72;;;1.52;;
65187;SDS011;51775;51.148;6.950;2023-07-20T07:23:22;1.80;;;1.30;;
65187;SDS011;51775;51.148;6.950;2023-07-20T07:25:47;1.80;;;1.33;;
65187;SDS011;51775;51.148;6.950;2023-07-20T07:28:13;1.98;;;1.40;;
65187;SDS011;51775;51.148;6.950;2023-07-20T07:30:38;2.30;;;1.50;;
65187;SDS011;51775;51.148;6.950;2023-07-20T07:33:04;1.83;;;1.35;;
65187;SDS011;51775;51.148;6.950;2023-07-20T07:35:29;1.90;;;1.38;;
65187;SDS011;51775;51.148;6.950;2023-07-20T07:37:54;1.77;;;1.30;;
65187;SDS011;51775;51.148;6.950;2023-07-20T07:40:20;1.77;;;1.20;;
65187;SDS011;51775;51.148;6.950;2023-07-20T07:42:45;1.65;;;1.20;;
65187;SDS011;51775;51.148;6.950;2023-07-20T07:45:10;2.67;;;1.35;;
65187;SDS011;51775;51.148;6.950;2023-07-20T07:47:37;1.80;;;1.30;;
65187;SDS011;51775;51.148;6.950;2023-07-20T07:50:02;1.95;;;1.27;;
65187;SDS011;51775;51.148;6.950;2023-07-20T07:52:28;1.48;;;1.08;;
65187;SDS011;51775;51.148;6.950;2023-07-20T07:54:53;1.67;;;1.20;;
65187;SDS011;51775;51.148;6.950;2023-07-20T07:57:19;2.15;;;1.40;;
65187;SDS011;51775;51.148;6.950;2023-07-20T07:59:44;2.20;;;1.38;;
65187;SDS011;51775;51.148;6.950;2023-07-20T08:02:09;3.30;;;1.20;;
65187;SDS011;51775;51.148;6.950;2023-07-20T08:04:34;1.88;;;1.15;;
65187;SDS011;51775;51.148;6.950;2023-07-20T08:07:00;2.20;;;1.20;;
65187;SDS011;51775;51.148;6.950;2023-07-20T08:09:27;1.75;;;1.20;;
65187;SDS011;51775;51.148;6.950;2023-07-20T08:11:52;1.77;;;1.05;;
65187;SDS011;51775;51.148;6.950;2023-07-20T08:14:17;1.88;;;1.10;;
65187;SDS011;51775;51.148;6.950;2023-07-20T08:16:43;1.83;;;1.20;;
65187;SDS011;51775;51.148;6.950;2023-07-20T08:19:08;2.28;;;1.10;;
65187;SDS011;51775;51.148;6.950;2023-07-20T08:21:33;2.08;;;1.20;;
65187;SDS011;51775;51.148;6.950;2023-07-20T08:23:59;1.70;;;1.10;;
65187;SDS011;51775;51.148;6.950;2023-07-20T08:26:24;1.60;;;1.10;;
65187;SDS011;51775;51.148;6.950;2023-07-20T08:28:49;1.50;;;1.10;;
65187;SDS011;51775;51.148;6.950;2023-07-20T08:31:15;1.33;;;0.90;;
65187;SDS011;51775;51.148;6.950;2023-07-20T08:33:40;1.40;;;1.00;;
65187;SDS011;51775;51.148;6.950;2023-07-20T08:36:05;1.98;;;1.13;;
65187;SDS011;51775;51.148;6.950;2023-07-20T08:38:31;1.52;;;1.10;;
65187;SDS011;51775;51.148;6.950;2023-07-20T08:40:56;1.30;;;1.10;;
65187;SDS011;51775;51.148;6.950;2023-07-20T08:43:22;2.03;;;1.20;;
65187;SDS011;51775;51.148;6.950;2023-07-20T08:45:48;1.42;;;1.00;;
65187;SDS011;51775;51.148;6.950;2023-07-20T08:48:14;1.08;;;0.90;;
65187;SDS011;51775;51.148;6.950;2023-07-20T08:50:41;1.15;;;0.90;;
65187;SDS011;51775;51.148;6.950;2023-07-20T08:53:07;1.27;;;0.90;;
65187;SDS011;51775;51.148;6.950;2023-07-20T08:55:34;1.30;;;1.00;;
65187;SDS011;51775;51.148;6.950;2023-07-20T08:58:00;1.63;;;1.00;;
65187;SDS011;51775;51.148;6.950;2023-07-20T09:00:27;1.30;;;0.90;;
65187;SDS011;51775;51.148;6.950;2023-07-20T09:02:53;1.20;;;0.95;;
65187;SDS011;51775;51.148;6.950;2023-07-20T09:05:19;4.90;;;1.30;;
65187;SDS011;51775;51.148;6.950;2023-07-20T09:07:46;1.10;;;0.80;;
65187;SDS011;51775;51.148;6.950;2023-07-20T09:10:12;1.40;;;1.00;;
65187;SDS011;51775;51.148;6.950;2023-07-20T09:12:39;1.27;;;0.98;;
65187;SDS011;51775;51.148;6.950;2023-07-20T09:15:05;1.42;;;1.00;;
65187;SDS011;51775;51.148;6.950;2023-07-20T09:17:31;2.00;;;1.05;;
65187;SDS011;51775;51.148;6.950;2023-07-20T09:19:57;2.03;;;0.90;;
65187;SDS011;51775;51.148;6.950;2023-07-20T09:22:29;1.13;;;0.88;;
65187;SDS011;51775;51.148;6.950;2023-07-20T09:24:55;1.00;;;0.90;;
65187;SDS011;51775;51.148;6.950;2023-07-20T09:27:20;1.27;;;1.00;;
65187;SDS011;51775;51.148;6.950;2023-07-20T09:29:49;1.90;;;0.95;;
65187;SDS011;51775;51.148;6.950;2023-07-20T09:32:18;1.10;;;0.90;;
65187;SDS011;51775;51.148;6.950;2023-07-20T09:34:44;1.20;;;1.00;;
65187;SDS011;51775;51.148;6.950;2023-07-20T09:37:09;1.33;;;1.02;;
65187;SDS011;51775;51.148;6.950;2023-07-20T09:39:42;1.42;;;1.00;;
65187;SDS011;51775;51.148;6.950;2023-07-20T09:44:36;1.20;;;0.90;;
65187;SDS011;51775;51.148;6.950;2023-07-20T09:47:02;1.20;;;1.00;;
65187;SDS011;51775;51.148;6.950;2023-07-20T09:49:28;1.90;;;0.90;;
65187;SDS011;51775;51.148;6.950;2023-07-20T09:51:53;1.30;;;1.00;;
65187;SDS011;51775;51.148;6.950;2023-07-20T09:54:19;1.27;;;1.00;;
65187;SDS011;51775;51.148;6.950;2023-07-20T09:56:46;1.50;;;1.00;;
65187;SDS011;51775;51.148;6.950;2023-07-20T09:59:13;1.30;;;1.00;;
65187;SDS011;51775;51.148;6.950;2023-07-20T10:01:39;1.27;;;0.95;;
65187;SDS011;51775;51.148;6.950;2023-07-20T10:04:08;1.45;;;1.08;;
65187;SDS011;51775;51.148;6.950;2023-07-20T10:06:34;1.38;;;1.02;;
65187;SDS011;51775;51.148;6.950;2023-07-20T10:09:00;1.67;;;1.00;;
65187;SDS011;51775;51.148;6.950;2023-07-20T10:11:29;1.85;;;1.02;;
65187;SDS011;51775;51.148;6.950;2023-07-20T10:13:56;1.65;;;1.05;;
65187;SDS011;51775;51.148;6.950;2023-07-20T10:16:36;1.10;;;0.90;;
65187;SDS011;51775;51.148;6.950;2023-07-20T10:21:37;2.20;;;1.00;;
65187;SDS011;51775;51.148;6.950;2023-07-20T10:24:07;1.40;;;0.98;;
65187;SDS011;51775;51.148;6.950;2023-07-20T10:26:33;1.38;;;0.90;;
65187;SDS011;51775;51.148;6.950;2023-07-20T10:28:58;1.30;;;1.00;;
65187;SDS011;51775;51.148;6.950;2023-07-20T10:31:24;1.48;;;1.00;;
65187;SDS011;51775;51.148;6.950;2023-07-20T10:33:50;1.55;;;1.00;;
65187;SDS011;51775;51.148;6.950;2023-07-20T10:36:16;1.77;;;1.20;;
65187;SDS011;51775;51.148;6.950;2023-07-20T10:38:53;1.25;;;1.05;;
65187;SDS011;51775;51.148;6.950;2023-07-20T10:43:48;1.65;;;0.90;;
65187;SDS011;51775;51.148;6.950;2023-07-20T10:46:14;1.25;;;0.80;;
65187;SDS011;51775;51.148;6.950;2023-07-20T10:48:58;1.23;;;0.98;;
65187;SDS011;51775;51.148;6.950;2023-07-20T10:51:24;1.20;;;0.90;;
65187;SDS011;51775;51.148;6.950;2023-07-20T10:53:50;1.35;;;0.90;;
65187;SDS011;51775;51.148;6.950;2023-07-20T10:56:22;1.23;;;1.00;;
65187;SDS011;51775;51.148;6.950;2023-07-20T10:58:50;1.50;;;1.00;;
65187;SDS011;51775;51.148;6.950;2023-07-20T11:01:21;1.40;;;1.08;;
65187;SDS011;51775;51.148;6.950;2023-07-20T11:03:56;2.33;;;1.00;;
65187;SDS011;51775;51.148;6.950;2023-07-20T11:09:04;1.55;;;1.00;;
65187;SDS011;51775;51.148;6.950;2023-07-20T11:11:31;1.25;;;0.90;;
65187;SDS011;51775;51.148;6.950;2023-07-20T11:13:59;1.15;;;0.93;;
65187;SDS011;51775;51.148;6.950;2023-07-20T11:19:02;0.80;;;0.80;;
65187;SDS011;51775;51.148;6.950;2023-07-20T11:21:37;1.95;;;0.80;;
65187;SDS011;51775;51.148;6.950;2023-07-20T11:24:04;0.85;;;0.80;;
65187;SDS011;51775;51.148;6.950;2023-07-20T11:26:39;1.25;;;0.80;;
65187;SDS011;51775;51.148;6.950;2023-07-20T11:29:04;1.30;;;0.90;;
65187;SDS011;51775;51.148;6.950;2023-07-20T11:31:30;1.08;;;0.80;;
65187;SDS011;51775;51.148;6.950;2023-07-20T11:33:55;1.17;;;0.80;;
65187;SDS011;51775;51.148;6.950;2023-07-20T11:36:20;1.00;;;0.80;;
65187;SDS011;51775;51.148;6.950;2023-07-20T11:38:45;1.23;;;0.90;;
65187;SDS011;51775;51.148;6.950;2023-07-20T11:41:11;1.50;;;0.90;;
65187;SDS011;51775;51.148;6.950;2023-07-20T11:43:38;1.50;;;0.88;;
65187;SDS011;51775;51.148;6.950;2023-07-20T11:46:05;0.90;;;0.80;;
65187;SDS011;51775;51.148;6.950;2023-07-20T11:48:31;1.10;;;0.80;;
65187;SDS011;51775;51.148;6.950;2023-07-20T11:50:56;0.82;;;0.73;;
65187;SDS011;51775;51.148;6.950;2023-07-20T11:53:21;1.05;;;0.80;;
65187;SDS011;51775;51.148;6.950;2023-07-20T11:55:49;0.85;;;0.68;;
65187;SDS011;51775;51.148;6.950;2023-07-20T11:58:14;0.95;;;0.70;;
65187;SDS011;51775;51.148;6.950;2023-07-20T12:00:41;1.05;;;0.60;;
65187;SDS011;51775;51.148;6.950;2023-07-20T12:03:09;0.80;;;0.70;;
65187;SDS011;51775;51.148;6.950;2023-07-20T12:05:34;0.77;;;0.70;;
65187;SDS011;51775;51.148;6.950;2023-07-20T12:08:00;1.55;;;0.80;;
65187;SDS011;51775;51.148;6.950;2023-07-20T12:10:26;0.60;;;0.60;;
65187;SDS011;51775;51.148;6.950;2023-07-20T12:12:53;1.83;;;0.88;;
65187;SDS011;51775;51.148;6.950;2023-07-20T12:15:22;1.48;;;0.80;;
65187;SDS011;51775;51.148;6.950;2023-07-20T12:17:50;1.80;;;0.65;;
65187;SDS011;51775;51.148;6.950;2023-07-20T12:20:26;1.35;;;0.75;;
65187;SDS011;51775;51.148;6.950;2023-07-20T12:22:55;4.03;;;0.80;;
65187;SDS011;51775;51.148;6.950;2023-07-20T12:25:44;0.98;;;0.70;;
65187;SDS011;51775;51.148;6.950;2023-07-20T12:28:11;4.00;;;0.73;;
65187;SDS011;51775;51.148;6.950;2023-07-20T12:30:38;1.55;;;0.60;;
65187;SDS011;51775;51.148;6.950;2023-07-20T12:33:04;0.75;;;0.52;;
65187;SDS011;51775;51.148;6.950;2023-07-20T12:35:30;1.20;;;0.70;;
65187;SDS011;51775;51.148;6.950;2023-07-20T12:37:56;0.88;;;0.63;;
65187;SDS011;51775;51.148;6.950;2023-07-20T12:40:21;1.02;;;0.70;;
65187;SDS011;51775;51.148;6.950;2023-07-20T12:42:47;1.20;;;0.60;;
65187;SDS011;51775;51.148;6.950;2023-07-20T12:45:12;0.80;;;0.60;;
65187;SDS011;51775;51.148;6.950;2023-07-20T12:47:38;0.75;;;0.60;;
65187;SDS011;51775;51.148;6.950;2023-07-20T12:50:04;1.25;;;0.60;;
65187;SDS011;51775;51.148;6.950;2023-07-20T12:52:29;1.25;;;0.70;;
65187;SDS011;51775;51.148;6.950;2023-07-20T12:54:54;1.33;;;0.80;;
65187;SDS011;51775;51.148;6.950;2023-07-20T12:57:20;1.88;;;0.80;;
65187;SDS011;51775;51.148;6.950;2023-07-20T12:59:45;1.15;;;0.70;;
65187;SDS011;51775;51.148;6.950;2023-07-20T13:02:10;1.90;;;0.50;;
65187;SDS011;51775;51.148;6.950;2023-07-20T13:04:36;0.80;;;0.60;;
65187;SDS011;51775;51.148;6.950;2023-07-20T13:07:01;1.27;;;0.60;;
65187;SDS011;51775;51.148;6.950;2023-07-20T13:09:26;1.50;;;0.70;;
65187;SDS011;51775;51.148;6.950;2023-07-20T13:11:52;1.83;;;0.80;;
65187;SDS011;51775;51.148;6.950;2023-07-20T13:14:17;0.90;;;0.70;;
65187;SDS011;51775;51.148;6.950;2023-07-20T13:16:42;0.95;;;0.60;;
65187;SDS011;51775;51.148;6.950;2023-07-20T13:19:07;1.40;;;0.60;;
65187;SDS011;51775;51.148;6.950;2023-07-20T13:21:33;1.10;;;0.55;;
65187;SDS011;51775;51.148;6.950;2023-07-20T13:23:58;0.52;;;0.52;;
65187;SDS011;51775;51.148;6.950;2023-07-20T13:26:23;1.17;;;0.60;;
65187;SDS011;51775;51.148;6.950;2023-07-20T13:28:49;0.68;;;0.57;;
65187;SDS011;51775;51.148;6.950;2023-07-20T13:31:14;1.25;;;0.70;;
65187;SDS011;51775;51.148;6.950;2023-07-20T13:33:39;0.60;;;0.60;;
65187;SDS011;51775;51.148;6.950;2023-07-20T13:36:05;1.02;;;0.70;;
65187;SDS011;51775;51.148;6.950;2023-07-20T13:38:30;1.58;;;0.65;;
65187;SDS011;51775;51.148;6.950;2023-07-20T13:40:56;0.88;;;0.80;;
65187;SDS011;51775;51.148;6.950;2023-07-20T13:43:21;1.02;;;0.70;;
65187;SDS011;51775;51.148;6.950;2023-07-20T13:45:46;1.50;;;0.60;;
65187;SDS011;51775;51.148;6.950;2023-07-20T13:48:12;1.85;;;0.70;;
65187;SDS011;51775;51.148;6.950;2023-07-20T13:50:37;1.23;;;0.60;;
65187;SDS011;51775;51.148;6.950;2023-07-20T13:53:02;0.90;;;0.70;;
65187;SDS011;51775;51.148;6.950;2023-07-20T13:55:28;0.73;;;0.52;;
65187;SDS011;51775;51.148;6.950;2023-07-20T13:57:53;0.90;;;0.68;;
65187;SDS011;51775;51.148;6.950;2023-07-20T14:00:18;1.17;;;0.70;;
65187;SDS011;51775;51.148;6.950;2023-07-20T14:02:44;3.05;;;0.90;;
65187;SDS011;51775;51.148;6.950;2023-07-20T14:05:09;2.88;;;0.88;;
65187;SDS011;51775;51.148;6.950;2023-07-20T14:07:34;1.70;;;0.65;;
65187;SDS011;51775;51.148;6.950;2023-07-20T14:09:59;2.55;;;0.70;;
65187;SDS011;51775;51.148;6.950;2023-07-20T14:12:25;2.33;;;0.80;;
65187;SDS011;51775;51.148;6.950;2023-07-20T14:14:50;1.88;;;0.80;;
65187;SDS011;51775;51.148;6.950;2023-07-20T14:17:15;1.85;;;0.70;;
65187;SDS011;51775;51.148;6.950;2023-07-20T14:19:41;1.10;;;0.70;;
65187;SDS011;51775;51.148;6.950;2023-07-20T14:22:06;2.25;;;0.70;;
65187;SDS011;51775;51.148;6.950;2023-07-20T14:24:31;2.28;;;0.70;;
65187;SDS011;51775;51.148;6.950;2023-07-20T14:26:56;1.70;;;0.70;;
65187;SDS011;51775;51.148;6.950;2023-07-20T14:29:22;1.60;;;0.60;;
65187;SDS011;51775;51.148;6.950;2023-07-20T14:31:47;0.90;;;0.68;;
65187;SDS011;51775;51.148;6.950;2023-07-20T14:34:12;3.22;;;0.90;;
65187;SDS011;51775;51.148;6.950;2023-07-20T14:36:38;0.70;;;0.60;;
65187;SDS011;51775;51.148;6.950;2023-07-20T14:39:03;1.73;;;0.70;;
65187;SDS011;51775;51.148;6.950;2023-07-20T14:41:28;1.17;;;0.73;;
65187;SDS011;51775;51.148;6.950;2023-07-20T14:43:53;1.40;;;0.60;;
65187;SDS011;51775;51.148;6.950;2023-07-20T14:46:19;0.95;;;0.70;;
65187;SDS011;51775;51.148;6.950;2023-07-20T14:48:44;2.78;;;0.50;;
65187;SDS011;51775;51.148;6.950;2023-07-20T14:51:09;2.80;;;0.80;;
65187;SDS011;51775;51.148;6.950;2023-07-20T14:53:36;1.63;;;0.90;;
65187;SDS011;51775;51.148;6.950;2023-07-20T14:56:01;2.28;;;0.80;;
65187;SDS011;51775;51.148;6.950;2023-07-20T14:58:27;1.88;;;0.70;;
65187;SDS011;51775;51.148;6.950;2023-07-20T15:00:52;2.35;;;0.70;;
65187;SDS011;51775;51.148;6.950;2023-07-20T15:03:17;2.45;;;0.80;;